PortugalFixed distance
MIUT - Madeira Island Ultra Trail 60 km
27 Apr2024
Distance
58.5km
Finishers
469352 men117 women
Winning time
6:07:41h
Median pace
5.54km/h
Pace distribution
469 finishers · 3.68–9.55 km/h · mean 5.73
Every finisher ran the same 58.5 km course, so these paces are directly comparable.
Histogram of finisher pace. 469 finishers ranged from 3.68 to 9.55 kilometres per hour, with a mean of 5.73 and a median of 5.54. The busiest band is 5.0 to 5.5 kilometres per hour, with 95 finishers.
Results
Ranks 251–300 of 469
| Rank | Runner | Time | Pace | Cat. | Placing |
|---|---|---|---|---|---|
| 251 | *Lisboa | 10:42:27h | 5.46 | M40 | 196th M · 41st M40 |
| 252 | *Lisboa | 10:43:34h | 5.45 | M35 | 197th M · 33rd M35 |
| 253 | Monsanto Running Team | 10:44:18h | 5.45 | M40 | 198th M · 42nd M40 |
| 254 | Pasa OU Entorna | 10:44:23h | 5.45 | M40 | 199th M · 43rd M40 |
| 255 | RSt ATH | 10:44:29h | 5.45 | M35 | 200th M · 34th M35 |
| 256 | Breiz Line | 10:44:59h | 5.44 | M55 | 201st M · 9th M55 |
| 257 | Clube Naval de SÃO Vic... | 10:45:29h | 5.44 | M40 | 202nd M · 44th M40 |
| 258 | Clube de Montanha do F... | 10:45:49h | 5.43 | M40 | 203rd M · 45th M40 |
| 259 | SC St Leger les Melezes | 10:47:10h | 5.42 | M45 | 204th M · 32nd M45 |
| 260 | As2Pic | 10:47:11h | 5.42 | M23 | 205th M · 65th M23 |
| 261 | *Courmayeur | 10:47:35h | 5.42 | M50 | 206th M · 16th M50 |
| 262 | Guiboles et Gambettes | 10:47:48h | 5.42 | M50 | 207th M · 17th M50 |
| 263 | Wlkp Mountains Ultra | 10:48:56h | 5.41 | W40 | 56th F · 10th W40 |
| 264 | Clube de Montanha do F... | 10:49:18h | 5.41 | M45 | 208th M · 33rd M45 |
| 265 | Tiba | 10:49:57h | 5.40 | M45 | 209th M · 34th M45 |
| 266 | les Echappés de Mélusine | 10:50:21h | 5.40 | M40 | 210th M · 46th M40 |
| 267 | *Kyiv | 10:51:24h | 5.39 | W35 | 57th F · 10th W35 |
| 268 | Rapv | 10:52:10h | 5.38 | M50 | 211th M · 18th M50 |
| 269 | Adtl-2351Running Team | 10:52:14h | 5.38 | M50 | 212th M · 19th M50 |
| 270 | *Bruxelles | 10:53:42h | 5.37 | W35 | 58th F · 11th W35 |
| 271 | Letsrunazores | 10:53:58h | 5.37 | M23 | 213th M · 66th M23 |
| 272 | TJ Sokol Jaromer | 10:54:07h | 5.37 | W50 | 59th F · 5th W50 |
| 273 | *Bystrice Pod Hostynem | 10:55:04h | 5.36 | M40 | 214th M · 47th M40 |
| 273 | *Funchal | 10:55:04h | 5.36 | M35 | 214th M · 35th M35 |
| 275 | Clube Desportivo Escol... | 10:57:04h | 5.34 | M35 | 216th M · 36th M35 |
| 276 | *Lisboa | 10:58:01h | 5.33 | M35 | 217th M · 37th M35 |
| 277 | Trailers du Môle | 10:58:23h | 5.33 | W23 | 60th F · 26th W23 |
| 278 | Caenrunners /Hr-Path | 10:58:25h | 5.33 | M40 | 218th M · 48th M40 |
| 279 | ESG Faumont | 10:58:37h | 5.33 | M45 | 219th M · 35th M45 |
| 280 | *Alencon | 11:00:09h | 5.32 | M40 | 220th M · 49th M40 |
| 281 | Vilaventura Trail | 11:00:10h | 5.32 | M23 | 221st M · 67th M23 |
| 282 | *Abcoude | 11:01:20h | 5.31 | M40 | 222nd M · 50th M40 |
| 283 | Grupeta Running Team | 11:01:35h | 5.30 | M35 | 223rd M · 38th M35 |
| 284 | *Auray | 11:03:34h | 5.29 | M35 | 224th M · 39th M35 |
| 285 | RCB | 11:04:57h | 5.28 | W23 | 61st F · 27th W23 |
| 286 | PAC MAC | 11:05:45h | 5.27 | W45 | 62nd F · 6th W45 |
| 287 | MDO Trail | 11:07:00h | 5.26 | M40 | 225th M · 51st M40 |
| 288 | *Braunschweig | 11:07:01h | 5.26 | M50 | 226th M · 20th M50 |
| 289 | Impulsion Trail | 11:07:14h | 5.26 | W23 | 63rd F · 28th W23 |
| 290 | Ceoukonva | 11:08:20h | 5.25 | M40 | 227th M · 52nd M40 |
| 291 | les Ceoukonva | 11:08:21h | 5.25 | M45 | 228th M · 36th M45 |
| 292 | *Bailleval | 11:08:39h | 5.25 | M50 | 229th M · 21st M50 |
| 293 | *Pinhal De Frades | 11:09:00h | 5.25 | M40 | 230th M · 53rd M40 |
| 294 | Clube Sport Juventude ... | 11:11:39h | 5.23 | M50 | 231st M · 22nd M50 |
| 295 | *Aix En Provence | 11:13:17h | 5.21 | M35 | 232nd M · 40th M35 |
| 296 | Associação Desportiva ... | 11:13:20h | 5.21 | M50 | 233rd M · 23rd M50 |
| 297 | Courir À Valence 26-07 | 11:14:19h | 5.21 | M35 | 234th M · 41st M35 |
| 298 | LIZ Runners | 11:14:21h | 5.21 | M60 | 235th M · 4th M60 |
| 299 | Carcassonne Trail Club | 11:14:28h | 5.20 | M50 | 236th M · 24th M50 |
| 300 | Jelmark/Globkuryr | 11:14:33h | 5.20 | M40 | 237th M · 54th M40 |
- 251*Lisboa196th M · 41st M40Time10:42:27hPace5.46Cat.M40
- 252*Lisboa197th M · 33rd M35Time10:43:34hPace5.45Cat.M35
- 253Monsanto Running Team198th M · 42nd M40Time10:44:18hPace5.45Cat.M40
- 254Pasa OU Entorna199th M · 43rd M40Time10:44:23hPace5.45Cat.M40
- 255RSt ATH200th M · 34th M35Time10:44:29hPace5.45Cat.M35
- 256Breiz Line201st M · 9th M55Time10:44:59hPace5.44Cat.M55
- 257Clube Naval de SÃO Vic...202nd M · 44th M40Time10:45:29hPace5.44Cat.M40
- 258Clube de Montanha do F...203rd M · 45th M40Time10:45:49hPace5.43Cat.M40
- 259SC St Leger les Melezes204th M · 32nd M45Time10:47:10hPace5.42Cat.M45
- 260As2Pic205th M · 65th M23Time10:47:11hPace5.42Cat.M23
- 261*Courmayeur206th M · 16th M50Time10:47:35hPace5.42Cat.M50
- 262Guiboles et Gambettes207th M · 17th M50Time10:47:48hPace5.42Cat.M50
- 263Wlkp Mountains Ultra56th F · 10th W40Time10:48:56hPace5.41Cat.W40
- 264Clube de Montanha do F...208th M · 33rd M45Time10:49:18hPace5.41Cat.M45
- 265Tiba209th M · 34th M45Time10:49:57hPace5.40Cat.M45
- 266les Echappés de Mélusine210th M · 46th M40Time10:50:21hPace5.40Cat.M40
- 267*Kyiv57th F · 10th W35Time10:51:24hPace5.39Cat.W35
- 268Rapv211th M · 18th M50Time10:52:10hPace5.38Cat.M50
- 269Adtl-2351Running Team212th M · 19th M50Time10:52:14hPace5.38Cat.M50
- 270*Bruxelles58th F · 11th W35Time10:53:42hPace5.37Cat.W35
- 271Letsrunazores213th M · 66th M23Time10:53:58hPace5.37Cat.M23
- 272TJ Sokol Jaromer59th F · 5th W50Time10:54:07hPace5.37Cat.W50
- 273*Bystrice Pod Hostynem214th M · 47th M40Time10:55:04hPace5.36Cat.M40
- 273*Funchal214th M · 35th M35Time10:55:04hPace5.36Cat.M35
- 275Clube Desportivo Escol...216th M · 36th M35Time10:57:04hPace5.34Cat.M35
- 276*Lisboa217th M · 37th M35Time10:58:01hPace5.33Cat.M35
- 277Trailers du Môle60th F · 26th W23Time10:58:23hPace5.33Cat.W23
- 278Caenrunners /Hr-Path218th M · 48th M40Time10:58:25hPace5.33Cat.M40
- 279ESG Faumont219th M · 35th M45Time10:58:37hPace5.33Cat.M45
- 280*Alencon220th M · 49th M40Time11:00:09hPace5.32Cat.M40
- 281Vilaventura Trail221st M · 67th M23Time11:00:10hPace5.32Cat.M23
- 282*Abcoude222nd M · 50th M40Time11:01:20hPace5.31Cat.M40
- 283Grupeta Running Team223rd M · 38th M35Time11:01:35hPace5.30Cat.M35
- 284*Auray224th M · 39th M35Time11:03:34hPace5.29Cat.M35
- 285RCB61st F · 27th W23Time11:04:57hPace5.28Cat.W23
- 286PAC MAC62nd F · 6th W45Time11:05:45hPace5.27Cat.W45
- 287MDO Trail225th M · 51st M40Time11:07:00hPace5.26Cat.M40
- 288*Braunschweig226th M · 20th M50Time11:07:01hPace5.26Cat.M50
- 289Impulsion Trail63rd F · 28th W23Time11:07:14hPace5.26Cat.W23
- 290Ceoukonva227th M · 52nd M40Time11:08:20hPace5.25Cat.M40
- 291les Ceoukonva228th M · 36th M45Time11:08:21hPace5.25Cat.M45
- 292*Bailleval229th M · 21st M50Time11:08:39hPace5.25Cat.M50
- 293*Pinhal De Frades230th M · 53rd M40Time11:09:00hPace5.25Cat.M40
- 294Clube Sport Juventude ...231st M · 22nd M50Time11:11:39hPace5.23Cat.M50
- 295*Aix En Provence232nd M · 40th M35Time11:13:17hPace5.21Cat.M35
- 296Associação Desportiva ...233rd M · 23rd M50Time11:13:20hPace5.21Cat.M50
- 297Courir À Valence 26-07234th M · 41st M35Time11:14:19hPace5.21Cat.M35
- 298LIZ Runners235th M · 4th M60Time11:14:21hPace5.21Cat.M60
- 299Carcassonne Trail Club236th M · 24th M50Time11:14:28hPace5.20Cat.M50
- 300Jelmark/Globkuryr237th M · 54th M40Time11:14:33hPace5.20Cat.M40
Showing ranks 251–300 of 469